sensor_id;sensor_type;location;lat;lon;timestamp;pressure;altitude;pressure_sealevel;temperature;humidity
40908;BME280;51055;59.436;24.778;2022-08-30T00:01:32;101487.97;;;16.32;73.00
40908;BME280;51055;59.436;24.778;2022-08-30T00:04:00;101493.91;;;16.36;72.70
40908;BME280;51055;59.436;24.778;2022-08-30T00:06:29;101488.09;;;16.31;72.67
40908;BME280;51055;59.436;24.778;2022-08-30T00:08:57;101484.75;;;16.29;72.77
40908;BME280;51055;59.436;24.778;2022-08-30T00:11:27;101499.38;;;16.25;72.32
40908;BME280;51055;59.436;24.778;2022-08-30T00:13:56;101486.97;;;16.24;72.36
40908;BME280;51055;59.436;24.778;2022-08-30T00:16:24;101485.72;;;16.28;72.65
40908;BME280;51055;59.436;24.778;2022-08-30T00:18:53;101489.25;;;16.19;72.80
40908;BME280;51055;59.436;24.778;2022-08-30T00:21:22;101490.50;;;16.24;72.62
40908;BME280;51055;59.436;24.778;2022-08-30T00:23:50;101482.19;;;16.17;72.40
40908;BME280;51055;59.436;24.778;2022-08-30T00:26:17;101489.66;;;16.24;72.62
40908;BME280;51055;59.436;24.778;2022-08-30T00:28:45;101486.97;;;16.24;72.37
40908;BME280;51055;59.436;24.778;2022-08-30T00:31:14;101486.41;;;16.30;72.32
40908;BME280;51055;59.436;24.778;2022-08-30T00:33:42;101489.09;;;16.30;72.28
40908;BME280;51055;59.436;24.778;2022-08-30T00:36:10;101493.91;;;16.26;72.03
40908;BME280;51055;59.436;24.778;2022-08-30T00:38:38;101488.81;;;16.23;72.20
40908;BME280;51055;59.436;24.778;2022-08-30T00:41:05;101484.88;;;16.27;72.46
40908;BME280;51055;59.436;24.778;2022-08-30T00:43:33;101493.63;;;16.29;72.27
40908;BME280;51055;59.436;24.778;2022-08-30T00:46:05;101482.06;;;16.29;72.33
40908;BME280;51055;59.436;24.778;2022-08-30T00:48:38;101485.88;;;16.26;72.52
40908;BME280;51055;59.436;24.778;2022-08-30T00:51:10;101478.94;;;16.33;72.68
40908;BME280;51055;59.436;24.778;2022-08-30T00:53:43;101475.84;;;16.28;72.63
40908;BME280;51055;59.436;24.778;2022-08-30T00:56:12;101483.72;;;16.30;72.96
40908;BME280;51055;59.436;24.778;2022-08-30T00:58:46;101486.28;;;16.31;73.29
40908;BME280;51055;59.436;24.778;2022-08-30T01:01:15;101488.84;;;16.33;73.95
40908;BME280;51055;59.436;24.778;2022-08-30T01:03:44;101485.31;;;16.32;74.67
40908;BME280;51055;59.436;24.778;2022-08-30T01:06:12;101483.47;;;16.33;75.18
40908;BME280;51055;59.436;24.778;2022-08-30T01:08:45;101486.00;;;16.34;75.36
40908;BME280;51055;59.436;24.778;2022-08-30T01:11:20;101478.94;;;16.33;75.92
40908;BME280;51055;59.436;24.778;2022-08-30T01:13:51;101486.56;;;16.38;75.91
40908;BME280;51055;59.436;24.778;2022-08-30T01:16:20;101485.31;;;16.32;75.69
40908;BME280;51055;59.436;24.778;2022-08-30T01:18:51;101492.63;;;16.30;75.41
40908;BME280;51055;59.436;24.778;2022-08-30T01:23:50;101494.44;;;16.30;75.36
40908;BME280;51055;59.436;24.778;2022-08-30T01:26:20;101484.00;;;16.27;75.37
40908;BME280;51055;59.436;24.778;2022-08-30T01:28:52;101472.91;;;16.22;75.11
40908;BME280;51055;59.436;24.778;2022-08-30T01:31:21;101489.94;;;16.30;75.04
40908;BME280;51055;59.436;24.778;2022-08-30T01:33:49;101488.97;;;16.31;75.15
40908;BME280;51055;59.436;24.778;2022-08-30T01:36:18;101491.91;;;16.28;75.63
40908;BME280;51055;59.436;24.778;2022-08-30T01:38:49;101491.06;;;16.28;75.46
40908;BME280;51055;59.436;24.778;2022-08-30T01:41:21;101488.56;;;16.26;75.90
40908;BME280;51055;59.436;24.778;2022-08-30T01:43:52;101486.97;;;16.24;75.94
40908;BME280;51055;59.436;24.778;2022-08-30T01:46:22;101491.63;;;16.22;76.03
40908;BME280;51055;59.436;24.778;2022-08-30T01:48:52;101493.34;;;16.23;76.13
40908;BME280;51055;59.436;24.778;2022-08-30T01:51:24;101488.97;;;16.22;76.37
40908;BME280;51055;59.436;24.778;2022-08-30T01:53:52;101491.47;;;16.23;76.58
40908;BME280;51055;59.436;24.778;2022-08-30T01:56:20;101490.50;;;16.24;76.84
40908;BME280;51055;59.436;24.778;2022-08-30T01:58:48;101496.13;;;16.21;77.27
40908;BME280;51055;59.436;24.778;2022-08-30T02:01:18;101496.13;;;16.21;77.33
40908;BME280;51055;59.436;24.778;2022-08-30T02:03:46;101493.34;;;16.23;77.58
40908;BME280;51055;59.436;24.778;2022-08-30T02:06:17;101498.13;;;16.29;76.99
40908;BME280;51055;59.436;24.778;2022-08-30T02:08:46;101493.91;;;16.26;77.02
40908;BME280;51055;59.436;24.778;2022-08-30T02:11:14;101489.53;;;16.25;76.94
40908;BME280;51055;59.436;24.778;2022-08-30T02:13:44;101496.44;;;16.28;76.90
40908;BME280;51055;59.436;24.778;2022-08-30T02:16:16;101497.97;;;16.30;76.74
40908;BME280;51055;59.436;24.778;2022-08-30T02:18:44;101486.28;;;16.31;76.66
40908;BME280;51055;59.436;24.778;2022-08-30T02:21:12;101485.72;;;16.28;76.53
40908;BME280;51055;59.436;24.778;2022-08-30T02:23:41;101484.00;;;16.27;76.89
40908;BME280;51055;59.436;24.778;2022-08-30T02:26:09;101479.22;;;16.30;76.31
40908;BME280;51055;59.436;24.778;2022-08-30T02:28:38;101479.09;;;16.32;76.31
40908;BME280;51055;59.436;24.778;2022-08-30T02:31:17;101480.53;;;16.36;75.74
40908;BME280;51055;59.436;24.778;2022-08-30T02:33:49;101485.31;;;16.32;76.06
40908;BME280;51055;59.436;24.778;2022-08-30T02:36:18;101472.03;;;16.31;76.08
40908;BME280;51055;59.436;24.778;2022-08-30T02:38:48;101481.22;;;16.28;76.39
40908;BME280;51055;59.436;24.778;2022-08-30T02:41:17;101463.44;;;16.27;76.60
40908;BME280;51055;59.436;24.778;2022-08-30T02:43:45;101470.50;;;16.28;76.42
40908;BME280;51055;59.436;24.778;2022-08-30T02:46:13;101459.22;;;16.25;76.49
40908;BME280;51055;59.436;24.778;2022-08-30T02:48:42;101462.47;;;16.28;76.45
40908;BME280;51055;59.436;24.778;2022-08-30T02:51:12;101454.84;;;16.24;76.53
40908;BME280;51055;59.436;24.778;2022-08-30T02:53:42;101455.69;;;16.24;76.83
40908;BME280;51055;59.436;24.778;2022-08-30T02:56:11;101455.84;;;16.23;76.94
40908;BME280;51055;59.436;24.778;2022-08-30T02:58:41;101456.84;;;16.22;77.01
40908;BME280;51055;59.436;24.778;2022-08-30T03:01:11;101454.56;;;16.27;76.80
40908;BME280;51055;59.436;24.778;2022-08-30T03:03:42;101445.72;;;16.26;76.75
40908;BME280;51055;59.436;24.778;2022-08-30T03:06:12;101452.03;;;16.25;76.72
40908;BME280;51055;59.436;24.778;2022-08-30T03:08:45;101446.53;;;16.27;76.58
40908;BME280;51055;59.436;24.778;2022-08-30T03:11:13;101454.84;;;16.24;76.79
40908;BME280;51055;59.436;24.778;2022-08-30T03:13:41;101450.22;;;16.26;77.12
40908;BME280;51055;59.436;24.778;2022-08-30T03:16:08;101452.34;;;16.22;76.88
40908;BME280;51055;59.436;24.778;2022-08-30T03:18:36;101440.78;;;16.22;77.09
40908;BME280;51055;59.436;24.778;2022-08-30T03:21:09;101439.81;;;16.23;77.02
40908;BME280;51055;59.436;24.778;2022-08-30T03:23:38;101452.16;;;16.24;77.47
40908;BME280;51055;59.436;24.778;2022-08-30T03:26:08;101466.84;;;16.20;77.26
40908;BME280;51055;59.436;24.778;2022-08-30T03:28:37;101454.16;;;16.22;77.09
40908;BME280;51055;59.436;24.778;2022-08-30T03:31:05;101458.66;;;16.21;77.14
40908;BME280;51055;59.436;24.778;2022-08-30T03:33:34;101456.84;;;16.22;77.66
40908;BME280;51055;59.436;24.778;2022-08-30T03:36:02;101458.81;;;16.29;77.23
40908;BME280;51055;59.436;24.778;2022-08-30T03:38:29;101450.78;;;16.29;77.06
40908;BME280;51055;59.436;24.778;2022-08-30T03:40:57;101459.78;;;16.28;76.95
40908;BME280;51055;59.436;24.778;2022-08-30T03:43:26;101463.59;;;16.26;76.79
40908;BME280;51055;59.436;24.778;2022-08-30T03:45:55;101466.00;;;16.29;76.66
40908;BME280;51055;59.436;24.778;2022-08-30T03:48:23;101461.34;;;16.21;76.96
40908;BME280;51055;59.436;24.778;2022-08-30T03:50:52;101466.41;;;16.24;77.25
40908;BME280;51055;59.436;24.778;2022-08-30T03:53:20;101469.66;;;16.28;77.17
40908;BME280;51055;59.436;24.778;2022-08-30T03:55:48;101482.19;;;16.27;77.28
40908;BME280;51055;59.436;24.778;2022-08-30T03:58:18;101476.72;;;16.29;78.17
40908;BME280;51055;59.436;24.778;2022-08-30T04:00:46;101474.72;;;16.31;78.53
40908;BME280;51055;59.436;24.778;2022-08-30T04:03:14;101471.47;;;16.27;79.39
40908;BME280;51055;59.436;24.778;2022-08-30T04:05:42;101476.84;;;16.27;79.42
40908;BME280;51055;59.436;24.778;2022-08-30T04:08:10;101472.50;;;16.26;79.56
40908;BME280;51055;59.436;24.778;2022-08-30T04:10:37;101477.13;;;16.24;79.79
40908;BME280;51055;59.436;24.778;2022-08-30T04:13:05;101479.66;;;16.26;79.78
40908;BME280;51055;59.436;24.778;2022-08-30T04:15:32;101475.28;;;16.25;79.67
40908;BME280;51055;59.436;24.778;2022-08-30T04:18:00;101476.84;;;16.27;79.82
40908;BME280;51055;59.436;24.778;2022-08-30T04:20:28;101486.69;;;16.27;79.61
40908;BME280;51055;59.436;24.778;2022-08-30T04:22:56;101487.81;;;16.24;79.98
40908;BME280;51055;59.436;24.778;2022-08-30T04:25:23;101486.84;;;16.25;80.00
40908;BME280;51055;59.436;24.778;2022-08-30T04:27:51;101486.84;;;16.25;79.97
40908;BME280;51055;59.436;24.778;2022-08-30T04:30:19;101489.81;;;16.22;80.09
40908;BME280;51055;59.436;24.778;2022-08-30T04:32:46;101493.34;;;16.23;79.79
40908;BME280;51055;59.436;24.778;2022-08-30T04:35:14;101490.09;;;16.19;79.79
40908;BME280;51055;59.436;24.778;2022-08-30T04:37:42;101481.91;;;16.21;79.94
40908;BME280;51055;59.436;24.778;2022-08-30T04:40:10;101488.81;;;16.23;79.90
40908;BME280;51055;59.436;24.778;2022-08-30T04:42:39;101490.50;;;16.24;79.84
40908;BME280;51055;59.436;24.778;2022-08-30T04:45:10;101490.22;;;16.27;79.64
40908;BME280;51055;59.436;24.778;2022-08-30T04:47:38;101495.84;;;16.24;79.55
40908;BME280;51055;59.436;24.778;2022-08-30T04:50:10;101499.25;;;16.26;79.54
40908;BME280;51055;59.436;24.778;2022-08-30T04:52:38;101493.19;;;16.24;79.45
40908;BME280;51055;59.436;24.778;2022-08-30T04:55:06;101491.91;;;16.28;78.92
40908;BME280;51055;59.436;24.778;2022-08-30T04:57:34;101499.09;;;16.28;78.70
40908;BME280;51055;59.436;24.778;2022-08-30T05:00:04;101500.34;;;16.24;79.27
40908;BME280;51055;59.436;24.778;2022-08-30T05:02:32;101499.22;;;16.16;79.01
40908;BME280;51055;59.436;24.778;2022-08-30T05:05:01;101496.13;;;16.21;79.54
40908;BME280;51055;59.436;24.778;2022-08-30T05:07:47;101505.72;;;16.24;79.63
40908;BME280;51055;59.436;24.778;2022-08-30T05:10:14;101505.44;;;16.27;79.43
40908;BME280;51055;59.436;24.778;2022-08-30T05:12:42;101506.16;;;16.29;79.53
40908;BME280;51055;59.436;24.778;2022-08-30T05:15:11;101501.09;;;16.26;79.35
40908;BME280;51055;59.436;24.778;2022-08-30T05:17:39;101502.91;;;16.25;79.43
40908;BME280;51055;59.436;24.778;2022-08-30T05:20:08;101496.69;;;16.25;79.62
40908;BME280;51055;59.436;24.778;2022-08-30T05:22:41;101493.19;;;16.34;79.26
40908;BME280;51055;59.436;24.778;2022-08-30T05:25:22;101487.97;;;16.32;79.06
40908;BME280;51055;59.436;24.778;2022-08-30T05:27:51;101490.66;;;16.32;79.11
40908;BME280;51055;59.436;24.778;2022-08-30T05:30:20;101499.09;;;16.37;78.89
40908;BME280;51055;59.436;24.778;2022-08-30T05:32:48;101490.94;;;16.39;78.77
40908;BME280;51055;59.436;24.778;2022-08-30T05:35:17;101486.69;;;16.36;78.26
40908;BME280;51055;59.436;24.778;2022-08-30T05:37:52;101489.94;;;16.40;77.63
40908;BME280;51055;59.436;24.778;2022-08-30T05:40:20;101491.63;;;16.41;77.86
40908;BME280;51055;59.436;24.778;2022-08-30T05:42:49;101484.59;;;16.40;77.71
40908;BME280;51055;59.436;24.778;2022-08-30T05:45:16;101489.94;;;16.40;77.48
40908;BME280;51055;59.436;24.778;2022-08-30T05:47:44;101489.66;;;16.43;77.51
40908;BME280;51055;59.436;24.778;2022-08-30T05:50:13;101493.34;;;16.42;77.43
40908;BME280;51055;59.436;24.778;2022-08-30T05:52:42;101493.34;;;16.42;77.64
40908;BME280;51055;59.436;24.778;2022-08-30T05:55:11;101486.75;;;16.55;76.51
40908;BME280;51055;59.436;24.778;2022-08-30T05:57:39;101481.50;;;16.54;75.73
40908;BME280;51055;59.436;24.778;2022-08-30T06:00:12;101492.63;;;16.49;76.03
40908;BME280;51055;59.436;24.778;2022-08-30T06:02:41;101494.72;;;16.46;75.79
40908;BME280;51055;59.436;24.778;2022-08-30T06:05:10;101491.22;;;16.45;75.45
40908;BME280;51055;59.436;24.778;2022-08-30T06:07:41;101491.78;;;16.49;75.72
40908;BME280;51055;59.436;24.778;2022-08-30T06:10:10;101492.13;;;16.55;74.74
40908;BME280;51055;59.436;24.778;2022-08-30T06:12:39;101482.75;;;16.50;75.17
40908;BME280;51055;59.436;24.778;2022-08-30T06:15:07;101486.84;;;16.54;75.11
40908;BME280;51055;59.436;24.778;2022-08-30T06:17:35;101485.03;;;16.54;75.24
40908;BME280;51055;59.436;24.778;2022-08-30T06:20:03;101490.13;;;16.57;75.20
40908;BME280;51055;59.436;24.778;2022-08-30T06:22:31;101488.28;;;16.58;74.98
40908;BME280;51055;59.436;24.778;2022-08-30T06:24:58;101483.50;;;16.61;75.17
40908;BME280;51055;59.436;24.778;2022-08-30T06:27:26;101481.81;;;16.60;74.96
40908;BME280;51055;59.436;24.778;2022-08-30T06:29:54;101487.84;;;16.62;75.03
40908;BME280;51055;59.436;24.778;2022-08-30T06:32:21;101491.81;;;16.58;75.28
40908;BME280;51055;59.436;24.778;2022-08-30T06:34:49;101493.75;;;16.47;76.06
40908;BME280;51055;59.436;24.778;2022-08-30T06:37:17;101497.00;;;16.41;76.77
40908;BME280;51055;59.436;24.778;2022-08-30T06:39:57;101490.25;;;16.56;76.29
40908;BME280;51055;59.436;24.778;2022-08-30T06:42:26;101492.50;;;16.60;76.29
40908;BME280;51055;59.436;24.778;2022-08-30T06:44:59;101491.06;;;16.47;76.55
40908;BME280;51055;59.436;24.778;2022-08-30T06:47:28;101492.50;;;16.60;76.45
40908;BME280;51055;59.436;24.778;2022-08-30T06:49:56;101488.41;;;16.66;75.96
40908;BME280;51055;59.436;24.778;2022-08-30T06:52:25;101492.09;;;16.65;75.79
40908;BME280;51055;59.436;24.778;2022-08-30T06:54:53;101502.09;;;16.63;75.93
40908;BME280;51055;59.436;24.778;2022-08-30T06:57:21;101490.81;;;16.59;76.23
40908;BME280;51055;59.436;24.778;2022-08-30T06:59:53;101491.66;;;16.60;75.66
40908;BME280;51055;59.436;24.778;2022-08-30T07:02:23;101494.03;;;16.53;76.17
40908;BME280;51055;59.436;24.778;2022-08-30T07:04:51;101502.50;;;16.49;75.93
40908;BME280;51055;59.436;24.778;2022-08-30T07:07:19;101499.56;;;16.61;75.92
40908;BME280;51055;59.436;24.778;2022-08-30T07:09:47;101493.94;;;16.55;75.18
40908;BME280;51055;59.436;24.778;2022-08-30T07:12:15;101491.66;;;16.60;75.04
40908;BME280;51055;59.436;24.778;2022-08-30T07:14:43;101487.72;;;16.74;74.81
40908;BME280;51055;59.436;24.778;2022-08-30T07:17:11;101496.72;;;16.82;74.56
40908;BME280;51055;59.436;24.778;2022-08-30T07:20:03;101494.19;;;16.90;73.40
40908;BME280;51055;59.436;24.778;2022-08-30T07:22:33;101495.44;;;16.96;73.57
40908;BME280;51055;59.436;24.778;2022-08-30T07:25:01;101501.81;;;16.95;73.49
40908;BME280;51055;59.436;24.778;2022-08-30T07:27:30;101500.38;;;17.00;73.31
40908;BME280;51055;59.436;24.778;2022-08-30T07:29:57;101493.88;;;17.03;72.28
40908;BME280;51055;59.436;24.778;2022-08-30T07:32:27;101498.81;;;17.07;71.97
40908;BME280;51055;59.436;24.778;2022-08-30T07:34:55;101499.06;;;17.14;71.12
40908;BME280;51055;59.436;24.778;2022-08-30T07:37:22;101505.69;;;17.19;71.06
40908;BME280;51055;59.436;24.778;2022-08-30T07:39:50;101506.66;;;17.18;70.98
40908;BME280;51055;59.436;24.778;2022-08-30T07:42:18;101505.25;;;17.24;71.08
40908;BME280;51055;59.436;24.778;2022-08-30T07:44:47;101502.97;;;17.29;70.88
40908;BME280;51055;59.436;24.778;2022-08-30T07:47:14;101498.53;;;17.38;70.65
40908;BME280;51055;59.436;24.778;2022-08-30T07:49:43;101498.38;;;17.49;70.38
40908;BME280;51055;59.436;24.778;2022-08-30T07:52:10;101494.25;;;17.54;69.75
40908;BME280;51055;59.436;24.778;2022-08-30T07:54:38;101506.13;;;17.61;69.41
40908;BME280;51055;59.436;24.778;2022-08-30T07:57:06;101499.47;;;17.65;69.36
40908;BME280;51055;59.436;24.778;2022-08-30T07:59:33;101503.59;;;17.60;68.57
40908;BME280;51055;59.436;24.778;2022-08-30T08:02:03;101505.81;;;17.64;67.96
40908;BME280;51055;59.436;24.778;2022-08-30T08:04:30;101508.50;;;17.55;67.93
40908;BME280;51055;59.436;24.778;2022-08-30T08:06:59;101504.44;;;17.51;68.48
40908;BME280;51055;59.436;24.778;2022-08-30T08:09:27;101513.06;;;17.45;68.73
40908;BME280;51055;59.436;24.778;2022-08-30T08:11:55;101515.31;;;17.49;68.05
40908;BME280;51055;59.436;24.778;2022-08-30T08:14:22;101512.78;;;17.48;67.15
40908;BME280;51055;59.436;24.778;2022-08-30T08:16:50;101520.97;;;17.46;67.32
40908;BME280;51055;59.436;24.778;2022-08-30T08:19:18;101519.69;;;17.50;67.14
40908;BME280;51055;59.436;24.778;2022-08-30T08:21:46;101528.19;;;17.46;66.98
40908;BME280;51055;59.436;24.778;2022-08-30T08:24:26;101526.19;;;17.48;66.85
40908;BME280;51055;59.436;24.778;2022-08-30T08:26:54;101519.97;;;17.47;67.22
40908;BME280;51055;59.436;24.778;2022-08-30T08:29:22;101521.06;;;17.54;67.31
40908;BME280;51055;59.436;24.778;2022-08-30T08:31:50;101524.78;;;17.53;66.93
40908;BME280;51055;59.436;24.778;2022-08-30T08:34:17;101525.22;;;17.39;66.77
40908;BME280;51055;59.436;24.778;2022-08-30T08:36:45;101529.75;;;17.39;66.93
40908;BME280;51055;59.436;24.778;2022-08-30T08:39:15;101538.25;;;17.25;67.69
40908;BME280;51055;59.436;24.778;2022-08-30T08:49:55;101547.06;;;17.07;69.64
40908;BME280;51055;59.436;24.778;2022-08-30T08:53:10;101544.94;;;17.11;69.86
40908;BME280;51055;59.436;24.778;2022-08-30T08:56:15;101544.91;;;17.21;69.81
40908;BME280;51055;59.436;24.778;2022-08-30T08:58:54;101547.84;;;17.27;69.34
40908;BME280;51055;59.436;24.778;2022-08-30T09:01:24;101536.44;;;17.15;69.14
40908;BME280;51055;59.436;24.778;2022-08-30T09:03:53;101541.13;;;17.13;69.28
40908;BME280;51055;59.436;24.778;2022-08-30T09:06:40;101534.22;;;17.11;69.21
40908;BME280;51055;59.436;24.778;2022-08-30T09:09:12;101545.06;;;17.09;68.97
40908;BME280;51055;59.436;24.778;2022-08-30T09:11:41;101547.34;;;17.04;69.06
40908;BME280;51055;59.436;24.778;2022-08-30T09:14:22;101550.44;;;17.09;69.00
40908;BME280;51055;59.436;24.778;2022-08-30T09:16:59;101548.00;;;17.16;68.38
40908;BME280;51055;59.436;24.778;2022-08-30T09:22:13;101556.75;;;17.08;68.00
40908;BME280;51055;59.436;24.778;2022-08-30T09:24:45;101560.88;;;17.03;67.96
40908;BME280;51055;59.436;24.778;2022-08-30T09:27:16;101566.38;;;16.92;68.52
40908;BME280;51055;59.436;24.778;2022-08-30T09:29:56;101564.81;;;16.99;68.01
40908;BME280;51055;59.436;24.778;2022-08-30T09:32:30;101562.28;;;17.07;67.71
40908;BME280;51055;59.436;24.778;2022-08-30T09:34:58;101560.59;;;17.06;67.64
40908;BME280;51055;59.436;24.778;2022-08-30T09:37:51;101563.13;;;17.07;68.34
40908;BME280;51055;59.436;24.778;2022-08-30T09:48:34;101564.69;;;17.10;67.43
40908;BME280;51055;59.436;24.778;2022-08-30T09:57:06;101567.75;;;17.15;66.27
40908;BME280;51055;59.436;24.778;2022-08-30T10:05:53;101580.72;;;17.29;64.30
40908;BME280;51055;59.436;24.778;2022-08-30T10:08:38;101577.34;;;17.37;63.37
40908;BME280;51055;59.436;24.778;2022-08-30T10:11:35;101588.06;;;17.37;62.48
40908;BME280;51055;59.436;24.778;2022-08-30T10:14:16;101588.06;;;17.37;62.52
40908;BME280;51055;59.436;24.778;2022-08-30T10:22:20;101587.53;;;17.24;61.19
40908;BME280;51055;59.436;24.778;2022-08-30T10:24:54;101588.09;;;17.27;60.36
40908;BME280;51055;59.436;24.778;2022-08-30T10:27:29;101584.81;;;17.33;59.49
40908;BME280;51055;59.436;24.778;2022-08-30T10:30:12;101592.00;;;17.33;59.71
40908;BME280;51055;59.436;24.778;2022-08-30T10:32:47;101597.66;;;17.30;59.34
40908;BME280;51055;59.436;24.778;2022-08-30T10:35:20;101595.09;;;17.38;59.31
40908;BME280;51055;59.436;24.778;2022-08-30T10:37:52;101606.13;;;17.35;59.16
40908;BME280;51055;59.436;24.778;2022-08-30T10:43:29;101588.78;;;17.29;58.98
40908;BME280;51055;59.436;24.778;2022-08-30T10:46:06;101597.50;;;17.31;58.97
40908;BME280;51055;59.436;24.778;2022-08-30T10:48:42;101588.91;;;17.18;58.79
40908;BME280;51055;59.436;24.778;2022-08-30T10:51:39;101597.66;;;17.30;58.85
40908;BME280;51055;59.436;24.778;2022-08-30T10:54:29;101602.84;;;17.41;58.12
40908;BME280;51055;59.436;24.778;2022-08-30T10:57:01;101607.78;;;17.45;57.63
40908;BME280;51055;59.436;24.778;2022-08-30T10:59:29;101607.66;;;17.47;58.24
40908;BME280;51055;59.436;24.778;2022-08-30T11:02:18;101607.34;;;17.69;58.21
40908;BME280;51055;59.436;24.778;2022-08-30T11:10:37;101610.06;;;17.96;58.26
40908;BME280;51055;59.436;24.778;2022-08-30T11:13:25;101619.84;;;17.88;57.14
40908;BME280;51055;59.436;24.778;2022-08-30T11:16:03;101618.94;;;17.97;57.44
40908;BME280;51055;59.436;24.778;2022-08-30T11:18:44;101609.78;;;17.99;56.54
40908;BME280;51055;59.436;24.778;2022-08-30T11:21:35;101621.19;;;18.01;56.57
40908;BME280;51055;59.436;24.778;2022-08-30T11:32:21;101633.13;;;18.16;56.35
40908;BME280;51055;59.436;24.778;2022-08-30T11:37:42;101621.88;;;17.76;59.83
40908;BME280;51055;59.436;24.778;2022-08-30T11:42:49;101623.75;;;17.66;60.16
40908;BME280;51055;59.436;24.778;2022-08-30T11:48:06;101626.56;;;17.64;59.79
40908;BME280;51055;59.436;24.778;2022-08-30T11:51:02;101630.59;;;17.78;59.32
40908;BME280;51055;59.436;24.778;2022-08-30T11:53:42;101634.19;;;17.69;59.75
40908;BME280;51055;59.436;24.778;2022-08-30T11:56:31;101624.44;;;17.58;59.73
40908;BME280;51055;59.436;24.778;2022-08-30T12:01:52;101631.66;;;17.58;59.89
40908;BME280;51055;59.436;24.778;2022-08-30T12:06:51;101634.75;;;17.63;59.26
40908;BME280;51055;59.436;24.778;2022-08-30T12:14:49;101645.34;;;17.45;59.17
40908;BME280;51055;59.436;24.778;2022-08-30T12:17:31;101643.66;;;17.35;59.43
40908;BME280;51055;59.436;24.778;2022-08-30T12:20:37;101641.25;;;17.32;59.67
40908;BME280;51055;59.436;24.778;2022-08-30T12:25:44;101635.03;;;17.31;59.03
40908;BME280;51055;59.436;24.778;2022-08-30T12:28:22;101643.53;;;17.27;59.05
40908;BME280;51055;59.436;24.778;2022-08-30T12:30:52;101652.72;;;17.24;59.14
40908;BME280;51055;59.436;24.778;2022-08-30T12:33:30;101640.88;;;17.17;58.16
40908;BME280;51055;59.436;24.778;2022-08-30T12:36:13;101647.09;;;17.17;57.36
40908;BME280;51055;59.436;24.778;2022-08-30T12:38:41;101652.84;;;17.23;57.47
40908;BME280;51055;59.436;24.778;2022-08-30T12:41:17;101651.28;;;17.30;56.96
40908;BME280;51055;59.436;24.778;2022-08-30T12:43:50;101650.31;;;17.31;57.32
40908;BME280;51055;59.436;24.778;2022-08-30T12:46:19;101653.53;;;17.34;57.27
40908;BME280;51055;59.436;24.778;2022-08-30T12:48:48;101654.09;;;17.38;56.42
40908;BME280;51055;59.436;24.778;2022-08-30T12:51:35;101651.69;;;17.44;56.16
40908;BME280;51055;59.436;24.778;2022-08-30T12:54:12;101636.31;;;17.46;55.65
40908;BME280;51055;59.436;24.778;2022-08-30T12:57:07;101648.00;;;17.55;55.71
40908;BME280;51055;59.436;24.778;2022-08-30T12:59:55;101650.28;;;17.69;55.22
40908;BME280;51055;59.436;24.778;2022-08-30T13:03:02;101647.00;;;17.75;54.71
40908;BME280;51055;59.436;24.778;2022-08-30T13:05:45;101647.28;;;17.82;54.79
40908;BME280;51055;59.436;24.778;2022-08-30T13:08:28;101643.16;;;17.87;54.21
40908;BME280;51055;59.436;24.778;2022-08-30T13:10:58;101640.72;;;17.94;53.56
40908;BME280;51055;59.436;24.778;2022-08-30T13:13:46;101638.75;;;17.96;53.77
40908;BME280;51055;59.436;24.778;2022-08-30T13:18:54;101633.59;;;18.12;53.97
40908;BME280;51055;59.436;24.778;2022-08-30T13:21:33;101634.84;;;18.17;54.21
40908;BME280;51055;59.436;24.778;2022-08-30T13:24:04;101640.06;;;18.19;53.74
40908;BME280;51055;59.436;24.778;2022-08-30T13:26:34;101637.63;;;18.26;53.63
40908;BME280;51055;59.436;24.778;2022-08-30T13:29:05;101637.75;;;18.24;53.58
40908;BME280;51055;59.436;24.778;2022-08-30T13:31:37;101639.56;;;18.33;53.64
40908;BME280;51055;59.436;24.778;2022-08-30T13:34:04;101644.50;;;18.38;53.95
40908;BME280;51055;59.436;24.778;2022-08-30T13:36:38;101645.16;;;18.40;53.66
40908;BME280;51055;59.436;24.778;2022-08-30T13:39:11;101641.69;;;18.30;53.74
40908;BME280;51055;59.436;24.778;2022-08-30T13:41:39;101641.13;;;18.26;54.52
40908;BME280;51055;59.436;24.778;2022-08-30T13:44:08;101636.63;;;18.27;54.27
40908;BME280;51055;59.436;24.778;2022-08-30T13:46:40;101640.19;;;18.17;54.63
40908;BME280;51055;59.436;24.778;2022-08-30T13:49:24;101645.19;;;18.12;54.99
40908;BME280;51055;59.436;24.778;2022-08-30T13:52:15;101633.59;;;18.12;55.24
40908;BME280;51055;59.436;24.778;2022-08-30T13:54:53;101646.91;;;18.04;55.51
40908;BME280;51055;59.436;24.778;2022-08-30T13:57:23;101641.13;;;17.99;54.96
40908;BME280;51055;59.436;24.778;2022-08-30T14:00:15;101640.47;;;17.87;54.80
40908;BME280;51055;59.436;24.778;2022-08-30T14:02:46;101645.00;;;17.77;54.43
40908;BME280;51055;59.436;24.778;2022-08-30T14:05:23;101651.38;;;17.76;54.17
40908;BME280;51055;59.436;24.778;2022-08-30T14:08:14;101652.50;;;17.74;54.18
40908;BME280;51055;59.436;24.778;2022-08-30T14:11:02;101659.47;;;17.66;53.30
40908;BME280;51055;59.436;24.778;2022-08-30T14:13:31;101643.91;;;17.60;52.97
40908;BME280;51055;59.436;24.778;2022-08-30T14:16:01;101663.00;;;17.57;53.25
40908;BME280;51055;59.436;24.778;2022-08-30T14:18:49;101646.75;;;17.59;53.45
40908;BME280;51055;59.436;24.778;2022-08-30T14:21:17;101657.63;;;17.57;53.74
40908;BME280;51055;59.436;24.778;2022-08-30T14:23:52;101658.75;;;17.45;54.33
40908;BME280;51055;59.436;24.778;2022-08-30T14:26:22;101667.78;;;17.44;55.01